sensor_id;sensor_type;location;lat;lon;timestamp;P1;durP1;ratioP1;P2;durP2;ratioP2
19998;SDS011;10160;50.926;4.374;2022-12-19T00:01:49;23.57;;;10.47;;
19998;SDS011;10160;50.926;4.374;2022-12-19T00:04:14;24.27;;;11.73;;
19998;SDS011;10160;50.926;4.374;2022-12-19T00:06:43;25.37;;;11.23;;
19998;SDS011;10160;50.926;4.374;2022-12-19T00:09:10;23.70;;;10.40;;
19998;SDS011;10160;50.926;4.374;2022-12-19T00:11:36;24.63;;;12.03;;
19998;SDS011;10160;50.926;4.374;2022-12-19T00:14:03;21.33;;;10.00;;
19998;SDS011;10160;50.926;4.374;2022-12-19T00:16:29;28.83;;;12.20;;
19998;SDS011;10160;50.926;4.374;2022-12-19T00:18:56;22.13;;;11.27;;
19998;SDS011;10160;50.926;4.374;2022-12-19T00:21:24;22.43;;;11.03;;
19998;SDS011;10160;50.926;4.374;2022-12-19T00:23:51;24.00;;;11.07;;
19998;SDS011;10160;50.926;4.374;2022-12-19T00:26:19;21.83;;;9.60;;
19998;SDS011;10160;50.926;4.374;2022-12-19T00:28:51;26.30;;;9.30;;
19998;SDS011;10160;50.926;4.374;2022-12-19T00:31:18;28.00;;;13.47;;
19998;SDS011;10160;50.926;4.374;2022-12-19T00:33:45;27.27;;;11.27;;
19998;SDS011;10160;50.926;4.374;2022-12-19T00:36:15;20.43;;;9.70;;
19998;SDS011;10160;50.926;4.374;2022-12-19T00:38:43;30.03;;;12.77;;
19998;SDS011;10160;50.926;4.374;2022-12-19T00:41:11;28.37;;;12.80;;
19998;SDS011;10160;50.926;4.374;2022-12-19T00:43:41;27.73;;;12.53;;
19998;SDS011;10160;50.926;4.374;2022-12-19T00:46:08;17.93;;;8.27;;
19998;SDS011;10160;50.926;4.374;2022-12-19T00:48:38;26.80;;;13.00;;
19998;SDS011;10160;50.926;4.374;2022-12-19T00:51:09;28.53;;;14.47;;
19998;SDS011;10160;50.926;4.374;2022-12-19T00:53:37;26.50;;;11.13;;
19998;SDS011;10160;50.926;4.374;2022-12-19T00:56:03;26.97;;;11.63;;
19998;SDS011;10160;50.926;4.374;2022-12-19T00:58:31;22.37;;;11.07;;
19998;SDS011;10160;50.926;4.374;2022-12-19T01:00:57;26.17;;;10.37;;
19998;SDS011;10160;50.926;4.374;2022-12-19T01:03:23;21.03;;;9.33;;
19998;SDS011;10160;50.926;4.374;2022-12-19T01:05:50;26.83;;;12.27;;
19998;SDS011;10160;50.926;4.374;2022-12-19T01:08:16;22.43;;;9.53;;
19998;SDS011;10160;50.926;4.374;2022-12-19T01:10:45;23.70;;;9.83;;
19998;SDS011;10160;50.926;4.374;2022-12-19T01:13:12;25.63;;;11.83;;
19998;SDS011;10160;50.926;4.374;2022-12-19T01:15:39;24.10;;;10.07;;
19998;SDS011;10160;50.926;4.374;2022-12-19T01:18:05;21.60;;;9.77;;
19998;SDS011;10160;50.926;4.374;2022-12-19T01:20:36;33.00;;;11.03;;
19998;SDS011;10160;50.926;4.374;2022-12-19T01:23:03;23.83;;;11.60;;
19998;SDS011;10160;50.926;4.374;2022-12-19T01:25:29;20.87;;;10.87;;
19998;SDS011;10160;50.926;4.374;2022-12-19T01:27:56;25.43;;;11.97;;
19998;SDS011;10160;50.926;4.374;2022-12-19T01:30:22;21.33;;;10.50;;
19998;SDS011;10160;50.926;4.374;2022-12-19T01:32:48;20.33;;;10.60;;
19998;SDS011;10160;50.926;4.374;2022-12-19T01:35:13;25.07;;;11.47;;
19998;SDS011;10160;50.926;4.374;2022-12-19T01:37:39;18.37;;;9.63;;
19998;SDS011;10160;50.926;4.374;2022-12-19T01:40:05;23.40;;;12.17;;
19998;SDS011;10160;50.926;4.374;2022-12-19T01:42:35;25.57;;;12.37;;
19998;SDS011;10160;50.926;4.374;2022-12-19T01:45:18;17.90;;;8.87;;
19998;SDS011;10160;50.926;4.374;2022-12-19T01:47:52;19.93;;;9.57;;
19998;SDS011;10160;50.926;4.374;2022-12-19T01:53:20;20.27;;;10.50;;
19998;SDS011;10160;50.926;4.374;2022-12-19T01:55:49;17.03;;;8.10;;
19998;SDS011;10160;50.926;4.374;2022-12-19T01:58:15;22.00;;;10.10;;
19998;SDS011;10160;50.926;4.374;2022-12-19T02:00:42;16.33;;;9.47;;
19998;SDS011;10160;50.926;4.374;2022-12-19T02:05:43;23.83;;;10.77;;
19998;SDS011;10160;50.926;4.374;2022-12-19T02:08:09;19.40;;;9.90;;
19998;SDS011;10160;50.926;4.374;2022-12-19T02:10:35;17.60;;;6.90;;
19998;SDS011;10160;50.926;4.374;2022-12-19T02:13:01;17.87;;;9.10;;
19998;SDS011;10160;50.926;4.374;2022-12-19T02:15:28;12.60;;;6.33;;
19998;SDS011;10160;50.926;4.374;2022-12-19T02:18:04;20.47;;;9.73;;
19998;SDS011;10160;50.926;4.374;2022-12-19T02:20:57;13.77;;;7.63;;
19998;SDS011;10160;50.926;4.374;2022-12-19T02:29:26;13.97;;;7.83;;
19998;SDS011;10160;50.926;4.374;2022-12-19T02:32:03;18.00;;;8.47;;
19998;SDS011;10160;50.926;4.374;2022-12-19T02:34:49;18.80;;;8.73;;
19998;SDS011;10160;50.926;4.374;2022-12-19T02:37:25;16.33;;;8.47;;
19998;SDS011;10160;50.926;4.374;2022-12-19T02:40:02;15.73;;;7.50;;
19998;SDS011;10160;50.926;4.374;2022-12-19T02:42:40;15.30;;;8.43;;
19998;SDS011;10160;50.926;4.374;2022-12-19T02:45:10;17.73;;;8.97;;
19998;SDS011;10160;50.926;4.374;2022-12-19T02:47:39;14.70;;;7.07;;
19998;SDS011;10160;50.926;4.374;2022-12-19T02:50:05;16.90;;;9.37;;
19998;SDS011;10160;50.926;4.374;2022-12-19T02:55:00;18.23;;;9.73;;
19998;SDS011;10160;50.926;4.374;2022-12-19T02:57:31;17.10;;;10.03;;
19998;SDS011;10160;50.926;4.374;2022-12-19T03:00:17;14.57;;;7.70;;
19998;SDS011;10160;50.926;4.374;2022-12-19T03:08:22;21.30;;;10.30;;
19998;SDS011;10160;50.926;4.374;2022-12-19T03:11:06;18.67;;;8.70;;
19998;SDS011;10160;50.926;4.374;2022-12-19T03:13:37;18.10;;;8.83;;
19998;SDS011;10160;50.926;4.374;2022-12-19T03:16:09;22.97;;;10.70;;
19998;SDS011;10160;50.926;4.374;2022-12-19T03:18:36;16.70;;;8.70;;
19998;SDS011;10160;50.926;4.374;2022-12-19T03:23:34;20.23;;;10.30;;
19998;SDS011;10160;50.926;4.374;2022-12-19T03:26:05;19.57;;;9.07;;
19998;SDS011;10160;50.926;4.374;2022-12-19T03:28:39;15.97;;;9.13;;
19998;SDS011;10160;50.926;4.374;2022-12-19T03:31:11;17.73;;;9.07;;
19998;SDS011;10160;50.926;4.374;2022-12-19T03:33:39;17.37;;;9.37;;
19998;SDS011;10160;50.926;4.374;2022-12-19T03:36:09;15.83;;;7.77;;
19998;SDS011;10160;50.926;4.374;2022-12-19T03:38:39;18.00;;;8.53;;
19998;SDS011;10160;50.926;4.374;2022-12-19T03:41:10;18.93;;;9.30;;
19998;SDS011;10160;50.926;4.374;2022-12-19T03:43:38;19.27;;;9.37;;
19998;SDS011;10160;50.926;4.374;2022-12-19T03:46:12;21.33;;;9.03;;
19998;SDS011;10160;50.926;4.374;2022-12-19T03:48:47;14.77;;;8.23;;
19998;SDS011;10160;50.926;4.374;2022-12-19T03:53:58;20.47;;;10.43;;
19998;SDS011;10160;50.926;4.374;2022-12-19T03:59:16;15.97;;;8.80;;
19998;SDS011;10160;50.926;4.374;2022-12-19T04:01:46;11.37;;;6.53;;
19998;SDS011;10160;50.926;4.374;2022-12-19T04:04:13;15.67;;;6.40;;
19998;SDS011;10160;50.926;4.374;2022-12-19T04:06:40;12.93;;;7.67;;
19998;SDS011;10160;50.926;4.374;2022-12-19T04:09:08;19.27;;;9.33;;
19998;SDS011;10160;50.926;4.374;2022-12-19T04:11:36;19.63;;;8.60;;
19998;SDS011;10160;50.926;4.374;2022-12-19T04:14:10;17.30;;;9.20;;
19998;SDS011;10160;50.926;4.374;2022-12-19T04:16:44;12.43;;;6.30;;
19998;SDS011;10160;50.926;4.374;2022-12-19T04:22:04;17.33;;;8.90;;
19998;SDS011;10160;50.926;4.374;2022-12-19T04:24:36;10.43;;;5.57;;
19998;SDS011;10160;50.926;4.374;2022-12-19T04:27:04;14.53;;;6.60;;
19998;SDS011;10160;50.926;4.374;2022-12-19T04:29:33;14.07;;;8.03;;
19998;SDS011;10160;50.926;4.374;2022-12-19T04:32:02;12.00;;;6.10;;
19998;SDS011;10160;50.926;4.374;2022-12-19T04:34:30;14.27;;;7.13;;
19998;SDS011;10160;50.926;4.374;2022-12-19T04:36:57;11.33;;;6.20;;
19998;SDS011;10160;50.926;4.374;2022-12-19T04:39:23;12.27;;;6.97;;
19998;SDS011;10160;50.926;4.374;2022-12-19T04:41:49;14.33;;;7.20;;
19998;SDS011;10160;50.926;4.374;2022-12-19T04:44:14;14.03;;;7.47;;
19998;SDS011;10160;50.926;4.374;2022-12-19T04:46:40;12.47;;;7.17;;
19998;SDS011;10160;50.926;4.374;2022-12-19T04:49:06;11.53;;;6.40;;
19998;SDS011;10160;50.926;4.374;2022-12-19T04:51:31;14.67;;;7.53;;
19998;SDS011;10160;50.926;4.374;2022-12-19T04:53:57;12.60;;;7.03;;
19998;SDS011;10160;50.926;4.374;2022-12-19T04:56:23;11.47;;;6.27;;
19998;SDS011;10160;50.926;4.374;2022-12-19T04:58:48;10.20;;;5.33;;
19998;SDS011;10160;50.926;4.374;2022-12-19T05:01:14;12.03;;;7.17;;
19998;SDS011;10160;50.926;4.374;2022-12-19T05:03:39;12.93;;;6.20;;
19998;SDS011;10160;50.926;4.374;2022-12-19T05:06:06;11.77;;;6.50;;
19998;SDS011;10160;50.926;4.374;2022-12-19T05:08:34;13.50;;;7.13;;
19998;SDS011;10160;50.926;4.374;2022-12-19T05:11:01;11.70;;;6.80;;
19998;SDS011;10160;50.926;4.374;2022-12-19T05:13:28;13.67;;;7.40;;
19998;SDS011;10160;50.926;4.374;2022-12-19T05:16:01;13.53;;;6.20;;
19998;SDS011;10160;50.926;4.374;2022-12-19T05:18:28;10.97;;;5.37;;
19998;SDS011;10160;50.926;4.374;2022-12-19T05:20:54;15.33;;;7.50;;
19998;SDS011;10160;50.926;4.374;2022-12-19T05:23:20;13.20;;;5.37;;
19998;SDS011;10160;50.926;4.374;2022-12-19T05:25:47;9.43;;;4.70;;
19998;SDS011;10160;50.926;4.374;2022-12-19T05:28:12;13.70;;;6.10;;
19998;SDS011;10160;50.926;4.374;2022-12-19T05:30:38;12.80;;;6.47;;
19998;SDS011;10160;50.926;4.374;2022-12-19T05:33:04;10.63;;;5.33;;
19998;SDS011;10160;50.926;4.374;2022-12-19T05:35:29;13.43;;;6.07;;
19998;SDS011;10160;50.926;4.374;2022-12-19T05:37:55;13.27;;;7.07;;
19998;SDS011;10160;50.926;4.374;2022-12-19T05:40:21;14.20;;;6.07;;
19998;SDS011;10160;50.926;4.374;2022-12-19T05:42:47;11.27;;;4.93;;
19998;SDS011;10160;50.926;4.374;2022-12-19T05:45:12;11.83;;;5.87;;
19998;SDS011;10160;50.926;4.374;2022-12-19T05:47:38;10.20;;;5.37;;
19998;SDS011;10160;50.926;4.374;2022-12-19T05:50:04;15.27;;;6.30;;
19998;SDS011;10160;50.926;4.374;2022-12-19T05:52:30;8.20;;;4.33;;
19998;SDS011;10160;50.926;4.374;2022-12-19T05:54:55;10.67;;;6.13;;
19998;SDS011;10160;50.926;4.374;2022-12-19T05:57:21;8.47;;;4.90;;
19998;SDS011;10160;50.926;4.374;2022-12-19T05:59:48;11.43;;;5.67;;
19998;SDS011;10160;50.926;4.374;2022-12-19T06:02:13;10.03;;;4.97;;
19998;SDS011;10160;50.926;4.374;2022-12-19T06:04:39;11.80;;;5.53;;
19998;SDS011;10160;50.926;4.374;2022-12-19T06:07:05;7.73;;;4.33;;
19998;SDS011;10160;50.926;4.374;2022-12-19T06:09:30;10.93;;;5.80;;
19998;SDS011;10160;50.926;4.374;2022-12-19T06:11:56;10.77;;;5.30;;
19998;SDS011;10160;50.926;4.374;2022-12-19T06:14:21;9.17;;;4.90;;
19998;SDS011;10160;50.926;4.374;2022-12-19T06:16:47;12.27;;;5.47;;
19998;SDS011;10160;50.926;4.374;2022-12-19T06:19:13;11.63;;;5.87;;
19998;SDS011;10160;50.926;4.374;2022-12-19T06:21:38;10.13;;;5.93;;
19998;SDS011;10160;50.926;4.374;2022-12-19T06:24:04;9.27;;;4.93;;
19998;SDS011;10160;50.926;4.374;2022-12-19T06:26:30;9.43;;;4.13;;
19998;SDS011;10160;50.926;4.374;2022-12-19T06:28:56;7.57;;;4.40;;
19998;SDS011;10160;50.926;4.374;2022-12-19T06:31:22;11.53;;;5.43;;
19998;SDS011;10160;50.926;4.374;2022-12-19T06:33:49;10.50;;;5.23;;
19998;SDS011;10160;50.926;4.374;2022-12-19T06:36:17;9.30;;;4.70;;
19998;SDS011;10160;50.926;4.374;2022-12-19T06:38:46;13.20;;;5.90;;
19998;SDS011;10160;50.926;4.374;2022-12-19T06:41:12;11.20;;;6.43;;
19998;SDS011;10160;50.926;4.374;2022-12-19T06:44:01;11.57;;;5.57;;
19998;SDS011;10160;50.926;4.374;2022-12-19T06:46:29;12.47;;;5.77;;
19998;SDS011;10160;50.926;4.374;2022-12-19T06:48:56;9.73;;;4.80;;
19998;SDS011;10160;50.926;4.374;2022-12-19T06:51:21;13.53;;;5.63;;
19998;SDS011;10160;50.926;4.374;2022-12-19T06:53:47;11.30;;;6.00;;
19998;SDS011;10160;50.926;4.374;2022-12-19T06:56:14;7.77;;;4.63;;
19998;SDS011;10160;50.926;4.374;2022-12-19T06:58:40;8.33;;;4.23;;
19998;SDS011;10160;50.926;4.374;2022-12-19T07:01:06;8.93;;;4.00;;
19998;SDS011;10160;50.926;4.374;2022-12-19T07:03:40;7.80;;;4.07;;
19998;SDS011;10160;50.926;4.374;2022-12-19T07:06:06;7.03;;;3.57;;
19998;SDS011;10160;50.926;4.374;2022-12-19T07:08:31;10.03;;;4.13;;
19998;SDS011;10160;50.926;4.374;2022-12-19T07:10:57;9.30;;;5.13;;
19998;SDS011;10160;50.926;4.374;2022-12-19T07:13:23;8.63;;;4.47;;
19998;SDS011;10160;50.926;4.374;2022-12-19T07:15:49;10.73;;;5.13;;
19998;SDS011;10160;50.926;4.374;2022-12-19T07:18:15;8.60;;;4.60;;
19998;SDS011;10160;50.926;4.374;2022-12-19T07:20:41;7.70;;;3.80;;
19998;SDS011;10160;50.926;4.374;2022-12-19T07:23:08;8.93;;;4.30;;
19998;SDS011;10160;50.926;4.374;2022-12-19T07:25:36;9.03;;;4.97;;
19998;SDS011;10160;50.926;4.374;2022-12-19T07:28:03;9.87;;;4.40;;
19998;SDS011;10160;50.926;4.374;2022-12-19T07:30:29;9.87;;;4.80;;
19998;SDS011;10160;50.926;4.374;2022-12-19T07:32:55;12.07;;;5.83;;
19998;SDS011;10160;50.926;4.374;2022-12-19T07:35:21;8.73;;;5.00;;
19998;SDS011;10160;50.926;4.374;2022-12-19T07:37:47;10.43;;;4.37;;
19998;SDS011;10160;50.926;4.374;2022-12-19T07:40:13;12.87;;;5.57;;
19998;SDS011;10160;50.926;4.374;2022-12-19T07:42:39;10.23;;;4.90;;
19998;SDS011;10160;50.926;4.374;2022-12-19T07:45:05;8.10;;;4.93;;
19998;SDS011;10160;50.926;4.374;2022-12-19T07:47:31;10.63;;;5.50;;
19998;SDS011;10160;50.926;4.374;2022-12-19T07:49:57;10.30;;;5.23;;
19998;SDS011;10160;50.926;4.374;2022-12-19T07:52:23;11.57;;;5.27;;
19998;SDS011;10160;50.926;4.374;2022-12-19T07:54:49;6.97;;;4.30;;
19998;SDS011;10160;50.926;4.374;2022-12-19T07:57:16;8.70;;;4.43;;
19998;SDS011;10160;50.926;4.374;2022-12-19T07:59:42;10.30;;;3.80;;
19998;SDS011;10160;50.926;4.374;2022-12-19T08:02:07;9.57;;;4.80;;
19998;SDS011;10160;50.926;4.374;2022-12-19T08:04:33;11.70;;;4.43;;
19998;SDS011;10160;50.926;4.374;2022-12-19T08:06:59;8.33;;;4.00;;
19998;SDS011;10160;50.926;4.374;2022-12-19T08:09:26;9.33;;;4.23;;
19998;SDS011;10160;50.926;4.374;2022-12-19T08:11:52;6.90;;;3.47;;
19998;SDS011;10160;50.926;4.374;2022-12-19T08:14:18;11.03;;;5.00;;
19998;SDS011;10160;50.926;4.374;2022-12-19T08:16:44;7.23;;;3.70;;
19998;SDS011;10160;50.926;4.374;2022-12-19T08:19:10;8.50;;;4.10;;
19998;SDS011;10160;50.926;4.374;2022-12-19T08:21:36;11.23;;;4.80;;
19998;SDS011;10160;50.926;4.374;2022-12-19T08:24:02;7.93;;;3.93;;
19998;SDS011;10160;50.926;4.374;2022-12-19T08:26:27;9.93;;;4.73;;
19998;SDS011;10160;50.926;4.374;2022-12-19T08:28:54;8.57;;;4.13;;
19998;SDS011;10160;50.926;4.374;2022-12-19T08:31:22;9.43;;;4.37;;
19998;SDS011;10160;50.926;4.374;2022-12-19T08:33:49;9.30;;;4.40;;
19998;SDS011;10160;50.926;4.374;2022-12-19T08:36:16;9.47;;;4.30;;
19998;SDS011;10160;50.926;4.374;2022-12-19T08:38:43;7.57;;;3.80;;
19998;SDS011;10160;50.926;4.374;2022-12-19T08:41:09;7.73;;;4.03;;
19998;SDS011;10160;50.926;4.374;2022-12-19T08:43:53;7.50;;;4.07;;
19998;SDS011;10160;50.926;4.374;2022-12-19T08:46:29;8.20;;;4.17;;
19998;SDS011;10160;50.926;4.374;2022-12-19T08:48:54;11.53;;;4.03;;
19998;SDS011;10160;50.926;4.374;2022-12-19T08:51:20;10.27;;;4.97;;
19998;SDS011;10160;50.926;4.374;2022-12-19T08:53:46;7.60;;;3.47;;
19998;SDS011;10160;50.926;4.374;2022-12-19T08:56:14;8.30;;;3.90;;
19998;SDS011;10160;50.926;4.374;2022-12-19T08:58:43;9.23;;;4.40;;
19998;SDS011;10160;50.926;4.374;2022-12-19T09:01:11;6.73;;;3.67;;
19998;SDS011;10160;50.926;4.374;2022-12-19T09:03:40;7.83;;;3.53;;
19998;SDS011;10160;50.926;4.374;2022-12-19T09:06:06;7.40;;;3.67;;
19998;SDS011;10160;50.926;4.374;2022-12-19T09:08:34;7.53;;;4.07;;
19998;SDS011;10160;50.926;4.374;2022-12-19T09:11:01;9.93;;;3.10;;
19998;SDS011;10160;50.926;4.374;2022-12-19T09:13:38;7.40;;;2.87;;
19998;SDS011;10160;50.926;4.374;2022-12-19T09:16:15;6.27;;;3.43;;
19998;SDS011;10160;50.926;4.374;2022-12-19T09:18:46;4.77;;;2.73;;
19998;SDS011;10160;50.926;4.374;2022-12-19T09:21:16;7.53;;;3.67;;
19998;SDS011;10160;50.926;4.374;2022-12-19T09:23:46;10.97;;;3.93;;
19998;SDS011;10160;50.926;4.374;2022-12-19T09:26:17;6.43;;;3.43;;
19998;SDS011;10160;50.926;4.374;2022-12-19T09:28:44;7.33;;;3.57;;
19998;SDS011;10160;50.926;4.374;2022-12-19T09:31:11;7.83;;;3.07;;
19998;SDS011;10160;50.926;4.374;2022-12-19T09:33:38;10.00;;;4.00;;
19998;SDS011;10160;50.926;4.374;2022-12-19T09:36:04;9.13;;;4.13;;
19998;SDS011;10160;50.926;4.374;2022-12-19T09:38:32;6.97;;;3.73;;
19998;SDS011;10160;50.926;4.374;2022-12-19T09:46:26;8.20;;;4.13;;
19998;SDS011;10160;50.926;4.374;2022-12-19T09:49:00;6.63;;;4.10;;
19998;SDS011;10160;50.926;4.374;2022-12-19T09:51:31;9.80;;;4.67;;
19998;SDS011;10160;50.926;4.374;2022-12-19T09:57:15;8.40;;;4.43;;
19998;SDS011;10160;50.926;4.374;2022-12-19T09:59:47;6.57;;;3.67;;
19998;SDS011;10160;50.926;4.374;2022-12-19T10:05:17;10.77;;;4.37;;
19998;SDS011;10160;50.926;4.374;2022-12-19T10:08:08;8.23;;;4.87;;
19998;SDS011;10160;50.926;4.374;2022-12-19T10:16:33;15.53;;;5.00;;
19998;SDS011;10160;50.926;4.374;2022-12-19T10:22:04;7.47;;;3.27;;
19998;SDS011;10160;50.926;4.374;2022-12-19T10:30:20;9.20;;;3.73;;
19998;SDS011;10160;50.926;4.374;2022-12-19T10:35:45;7.50;;;3.30;;
19998;SDS011;10160;50.926;4.374;2022-12-19T10:46:01;8.70;;;3.30;;
19998;SDS011;10160;50.926;4.374;2022-12-19T10:48:35;5.83;;;2.87;;
19998;SDS011;10160;50.926;4.374;2022-12-19T10:51:00;5.77;;;2.50;;
19998;SDS011;10160;50.926;4.374;2022-12-19T10:53:27;8.03;;;3.00;;
19998;SDS011;10160;50.926;4.374;2022-12-19T10:55:54;8.73;;;2.90;;
19998;SDS011;10160;50.926;4.374;2022-12-19T10:58:35;7.07;;;2.60;;
19998;SDS011;10160;50.926;4.374;2022-12-19T11:03:45;8.70;;;3.37;;
19998;SDS011;10160;50.926;4.374;2022-12-19T11:11:57;7.00;;;2.73;;
19998;SDS011;10160;50.926;4.374;2022-12-19T11:14:36;4.67;;;2.33;;
19998;SDS011;10160;50.926;4.374;2022-12-19T11:17:04;5.87;;;2.90;;
19998;SDS011;10160;50.926;4.374;2022-12-19T11:19:46;5.90;;;3.10;;
19998;SDS011;10160;50.926;4.374;2022-12-19T11:22:15;6.13;;;2.40;;
19998;SDS011;10160;50.926;4.374;2022-12-19T11:24:51;5.70;;;2.90;;
19998;SDS011;10160;50.926;4.374;2022-12-19T11:30:08;5.03;;;2.40;;
19998;SDS011;10160;50.926;4.374;2022-12-19T11:32:45;8.50;;;2.73;;
19998;SDS011;10160;50.926;4.374;2022-12-19T11:37:50;6.37;;;2.90;;
19998;SDS011;10160;50.926;4.374;2022-12-19T11:40:35;5.07;;;2.80;;
19998;SDS011;10160;50.926;4.374;2022-12-19T11:43:08;4.97;;;2.23;;
19998;SDS011;10160;50.926;4.374;2022-12-19T11:45:50;6.47;;;3.27;;
19998;SDS011;10160;50.926;4.374;2022-12-19T11:48:39;5.10;;;2.60;;
19998;SDS011;10160;50.926;4.374;2022-12-19T11:54:21;10.33;;;3.03;;
19998;SDS011;10160;50.926;4.374;2022-12-19T11:56:48;6.60;;;2.77;;
19998;SDS011;10160;50.926;4.374;2022-12-19T11:59:16;6.50;;;2.70;;
19998;SDS011;10160;50.926;4.374;2022-12-19T12:01:56;5.20;;;2.50;;
19998;SDS011;10160;50.926;4.374;2022-12-19T12:07:27;5.87;;;2.40;;
19998;SDS011;10160;50.926;4.374;2022-12-19T12:12:33;4.87;;;2.70;;
19998;SDS011;10160;50.926;4.374;2022-12-19T12:18:08;7.80;;;2.63;;
19998;SDS011;10160;50.926;4.374;2022-12-19T12:20:48;5.67;;;2.30;;
19998;SDS011;10160;50.926;4.374;2022-12-19T12:26:11;5.93;;;2.50;;
19998;SDS011;10160;50.926;4.374;2022-12-19T12:28:49;9.30;;;2.40;;
19998;SDS011;10160;50.926;4.374;2022-12-19T12:36:39;5.43;;;2.40;;
19998;SDS011;10160;50.926;4.374;2022-12-19T12:41:57;5.90;;;2.60;;
19998;SDS011;10160;50.926;4.374;2022-12-19T12:44:39;5.27;;;2.70;;
19998;SDS011;10160;50.926;4.374;2022-12-19T12:47:14;6.40;;;2.53;;
19998;SDS011;10160;50.926;4.374;2022-12-19T12:49:46;6.67;;;2.93;;
19998;SDS011;10160;50.926;4.374;2022-12-19T12:52:51;5.73;;;2.67;;
19998;SDS011;10160;50.926;4.374;2022-12-19T13:06:38;7.43;;;3.00;;
19998;SDS011;10160;50.926;4.374;2022-12-19T13:11:49;7.47;;;2.73;;
19998;SDS011;10160;50.926;4.374;2022-12-19T13:14:49;6.30;;;2.80;;
19998;SDS011;10160;50.926;4.374;2022-12-19T13:27:57;6.30;;;2.67;;
19998;SDS011;10160;50.926;4.374;2022-12-19T13:30:30;5.57;;;2.40;;
19998;SDS011;10160;50.926;4.374;2022-12-19T13:37:58;5.77;;;2.70;;
19998;SDS011;10160;50.926;4.374;2022-12-19T13:40:55;5.73;;;2.40;;
19998;SDS011;10160;50.926;4.374;2022-12-19T13:43:38;4.37;;;2.03;;
19998;SDS011;10160;50.926;4.374;2022-12-19T13:49:19;6.63;;;3.03;;
19998;SDS011;10160;50.926;4.374;2022-12-19T13:51:55;12.17;;;2.90;;
19998;SDS011;10160;50.926;4.374;2022-12-19T13:54:28;6.33;;;2.87;;
19998;SDS011;10160;50.926;4.374;2022-12-19T13:56:58;6.17;;;2.77;;
19998;SDS011;10160;50.926;4.374;2022-12-19T13:59:25;5.77;;;2.50;;
19998;SDS011;10160;50.926;4.374;2022-12-19T14:01:55;7.23;;;3.30;;
19998;SDS011;10160;50.926;4.374;2022-12-19T14:04:39;6.17;;;2.93;;
19998;SDS011;10160;50.926;4.374;2022-12-19T14:07:14;4.97;;;2.40;;
19998;SDS011;10160;50.926;4.374;2022-12-19T14:09:51;5.27;;;2.47;;
19998;SDS011;10160;50.926;4.374;2022-12-19T14:12:31;5.77;;;2.60;;
19998;SDS011;10160;50.926;4.374;2022-12-19T14:15:35;6.57;;;2.43;;
19998;SDS011;10160;50.926;4.374;2022-12-19T14:18:18;4.67;;;2.27;;
19998;SDS011;10160;50.926;4.374;2022-12-19T14:20:44;6.67;;;2.40;;
19998;SDS011;10160;50.926;4.374;2022-12-19T14:23:11;4.77;;;2.60;;
19998;SDS011;10160;50.926;4.374;2022-12-19T14:25:50;6.93;;;3.03;;
19998;SDS011;10160;50.926;4.374;2022-12-19T14:28:26;7.67;;;2.63;;
19998;SDS011;10160;50.926;4.374;2022-12-19T14:31:06;6.53;;;2.67;;
19998;SDS011;10160;50.926;4.374;2022-12-19T14:33:37;5.60;;;2.50;;
19998;SDS011;10160;50.926;4.374;2022-12-19T14:36:12;5.73;;;2.70;;
19998;SDS011;10160;50.926;4.374;2022-12-19T14:38:38;6.03;;;2.80;;
19998;SDS011;10160;50.926;4.374;2022-12-19T14:41:05;12.80;;;3.33;;
19998;SDS011;10160;50.926;4.374;2022-12-19T14:44:15;7.70;;;3.20;;
19998;SDS011;10160;50.926;4.374;2022-12-19T14:46:42;5.67;;;2.50;;
19998;SDS011;10160;50.926;4.374;2022-12-19T14:52:48;6.53;;;2.53;;
19998;SDS011;10160;50.926;4.374;2022-12-19T14:57:47;5.97;;;2.93;;
19998;SDS011;10160;50.926;4.374;2022-12-19T15:00:24;4.63;;;2.47;;
19998;SDS011;10160;50.926;4.374;2022-12-19T15:02:56;6.30;;;2.60;;
19998;SDS011;10160;50.926;4.374;2022-12-19T15:05:24;4.20;;;1.93;;
19998;SDS011;10160;50.926;4.374;2022-12-19T15:07:51;4.87;;;2.40;;
19998;SDS011;10160;50.926;4.374;2022-12-19T15:10:21;6.70;;;2.80;;
19998;SDS011;10160;50.926;4.374;2022-12-19T15:20:57;7.50;;;2.90;;
19998;SDS011;10160;50.926;4.374;2022-12-19T15:23:25;7.00;;;2.80;;
19998;SDS011;10160;50.926;4.374;2022-12-19T15:25:52;7.40;;;2.83;;
19998;SDS011;10160;50.926;4.374;2022-12-19T15:28:35;7.00;;;3.03;;
19998;SDS011;10160;50.926;4.374;2022-12-19T15:31:08;6.40;;;3.43;;
19998;SDS011;10160;50.926;4.374;2022-12-19T15:33:54;5.20;;;3.10;;
19998;SDS011;10160;50.926;4.374;2022-12-19T15:36:19;17.37;;;3.27;;
19998;SDS011;10160;50.926;4.374;2022-12-19T15:38:45;4.70;;;2.27;;
19998;SDS011;10160;50.926;4.374;2022-12-19T15:41:11;7.73;;;3.03;;
19998;SDS011;10160;50.926;4.374;2022-12-19T15:43:41;6.40;;;3.03;;
19998;SDS011;10160;50.926;4.374;2022-12-19T15:46:07;6.30;;;2.93;;
19998;SDS011;10160;50.926;4.374;2022-12-19T15:48:36;7.23;;;3.13;;
19998;SDS011;10160;50.926;4.374;2022-12-19T15:51:04;6.57;;;2.77;;
19998;SDS011;10160;50.926;4.374;2022-12-19T15:53:30;8.60;;;3.07;;
19998;SDS011;10160;50.926;4.374;2022-12-19T15:55:57;5.43;;;2.90;;
19998;SDS011;10160;50.926;4.374;2022-12-19T15:58:27;6.40;;;2.97;;
19998;SDS011;10160;50.926;4.374;2022-12-19T16:00:59;11.80;;;2.80;;
19998;SDS011;10160;50.926;4.374;2022-12-19T16:03:27;10.93;;;3.10;;
19998;SDS011;10160;50.926;4.374;2022-12-19T16:05:53;7.50;;;2.97;;
19998;SDS011;10160;50.926;4.374;2022-12-19T16:08:19;6.73;;;2.90;;
19998;SDS011;10160;50.926;4.374;2022-12-19T16:10:50;6.23;;;3.07;;
19998;SDS011;10160;50.926;4.374;2022-12-19T16:13:25;6.47;;;3.10;;
19998;SDS011;10160;50.926;4.374;2022-12-19T16:15:53;5.93;;;3.10;;
19998;SDS011;10160;50.926;4.374;2022-12-19T16:18:20;6.03;;;3.30;;
19998;SDS011;10160;50.926;4.374;2022-12-19T16:20:46;7.87;;;3.03;;
19998;SDS011;10160;50.926;4.374;2022-12-19T16:23:12;6.37;;;2.90;;
19998;SDS011;10160;50.926;4.374;2022-12-19T16:25:43;7.70;;;3.50;;
19998;SDS011;10160;50.926;4.374;2022-12-19T16:28:14;8.53;;;2.63;;
19998;SDS011;10160;50.926;4.374;2022-12-19T16:30:42;7.80;;;3.77;;
19998;SDS011;10160;50.926;4.374;2022-12-19T16:33:22;7.63;;;3.70;;
19998;SDS011;10160;50.926;4.374;2022-12-19T16:35:53;9.83;;;3.53;;
19998;SDS011;10160;50.926;4.374;2022-12-19T16:38:20;6.70;;;2.93;;
19998;SDS011;10160;50.926;4.374;2022-12-19T16:40:46;12.53;;;3.40;;
19998;SDS011;10160;50.926;4.374;2022-12-19T16:43:30;7.23;;;3.13;;
19998;SDS011;10160;50.926;4.374;2022-12-19T16:46:01;9.33;;;3.10;;
19998;SDS011;10160;50.926;4.374;2022-12-19T16:48:29;7.33;;;3.43;;
19998;SDS011;10160;50.926;4.374;2022-12-19T16:50:58;7.97;;;3.20;;
19998;SDS011;10160;50.926;4.374;2022-12-19T16:53:24;5.97;;;2.73;;
19998;SDS011;10160;50.926;4.374;2022-12-19T16:55:50;8.60;;;3.30;;
19998;SDS011;10160;50.926;4.374;2022-12-19T16:58:20;7.17;;;2.93;;
19998;SDS011;10160;50.926;4.374;2022-12-19T17:00:48;8.63;;;2.63;;
19998;SDS011;10160;50.926;4.374;2022-12-19T17:03:39;7.93;;;2.77;;
19998;SDS011;10160;50.926;4.374;2022-12-19T17:06:07;8.23;;;3.07;;
19998;SDS011;10160;50.926;4.374;2022-12-19T17:08:38;9.13;;;3.20;;
19998;SDS011;10160;50.926;4.374;2022-12-19T17:11:04;7.23;;;2.60;;
19998;SDS011;10160;50.926;4.374;2022-12-19T17:13:32;5.03;;;2.50;;
19998;SDS011;10160;50.926;4.374;2022-12-19T17:15:58;9.53;;;3.10;;
19998;SDS011;10160;50.926;4.374;2022-12-19T17:18:28;8.97;;;3.10;;
19998;SDS011;10160;50.926;4.374;2022-12-19T17:20:57;5.67;;;2.90;;
19998;SDS011;10160;50.926;4.374;2022-12-19T17:23:23;7.43;;;3.33;;
19998;SDS011;10160;50.926;4.374;2022-12-19T17:25:50;5.43;;;2.73;;
19998;SDS011;10160;50.926;4.374;2022-12-19T17:28:15;4.97;;;2.53;;